NCAR-RAP Real-Time Weather Data

Output produced by METARs form (08 May 2021  01:44 UTC)
found at http://weather.rap.ucar.edu/surface/
 
KFAY 080053Z 30007KT 10SM CLR 17/02 A2993 RMK AO2 SLP129 T01670017
KFAY 072353Z 29009KT 10SM CLR 18/03 A2990 RMK AO2 LTG DSNT E SLP121 60010 T01780028 10200 20144 53012
KFAY 072253Z 30011G21KT 10SM SCT090 19/05 A2988 RMK AO2 SLP114 T01890050
KFAY 072153Z 31016G21KT 10SM SCT065 19/06 A2988 RMK AO2 SLP113 T01940061
KFAY 072053Z 31011KT 10SM CLR 19/07 A2987 RMK AO2 SLP108 60010 T01890067 58007
KFAY 072003Z 30010KT 10SM FEW035 SCT048 BKN100 17/11 A2987 RMK AO2 LTG DSNT S T01670111
KFAY 071953Z 32008KT 10SM VCTS FEW038 SCT050 BKN065 16/11 A2988 RMK AO2 LTG DSNT S AND SW RAE14B39E50 SLP112 P0004 T01560106
KFAY 071948Z 32009G20KT 10SM VCTS -RA FEW031 SCT040 BKN060 16/10 A2988 RMK AO2 LTG DSNT S AND SW RAE14B39 P0004
KFAY 071907Z 34004KT 5SM -RA FEW032 SCT040 OVC049 15/11 A2989 RMK AO2 LTG DSNT S P0003 T01500106
KFAY 071853Z 32008KT 10SM VCTS -RA FEW032 BKN050 OVC070 16/11 A2989 RMK AO2 LTG DSNT S AND SW RAB23 SLP116 P0006 T01560106
KFAY 071846Z 30006G15KT 4SM VCTS -RA FEW038 BKN047 OVC065 16/09 A2988 RMK AO2 LTG DSNT S AND SW RAB23 P0006 T01560094
KFAY 071753Z 32013KT 10SM BKN039 BKN048 19/09 A2988 RMK AO2 LTG DSNT W SLP111 60027 T01890094 10189 20111 58004
KFAY 071653Z VRB05KT 10SM FEW110 18/09 A2989 RMK AO2 SLP116 T01780089
KFAY 071553Z 00000KT 10SM BKN095 16/09 A2990 RMK AO2 RAB1458E15 SLP118 P0000 T01560089
KFAY 071453Z 06005KT 10SM BKN075 OVC090 13/09 A2989 RMK AO2 RAE32 SLP115 P0003 60027 T01280089 58011
KFAY 071353Z 03010KT 6SM -RA BR BKN055 OVC070 12/09 A2991 RMK AO2 WSHFT 1330 LTG DSNT E AND SE RAE32B50 SLP124 P0009 T01170094
KFAY 071350Z 02010KT 10SM -RA BKN060 OVC080 12/09 A2992 RMK AO2 WSHFT 1330 LTG DSNT E AND SE RAE32B50 P0008
KFAY 071323Z 03018G24KT 5SM -RA BR SCT047 BKN070 OVC080 11/09 A2988 RMK AO2 LTG DSNT NE-S P0008 T01110094
KFAY 071310Z 03017KT 2SM VCTS RA BR BKN049 OVC065 11/09 A2987 RMK AO2 LTG DSNT NE-S P0007 T01110094
KFAY 071253Z 35011KT 4SM VCTS RA BR FEW042 OVC060 12/10 A2992 RMK AO2 LTG DSNT E-SW TSE1155B03E37 SLP126 P0015 T01170100
KFAY 071243Z 35014G20KT 5SM VCTS -RA BR SCT039 BKN055 OVC070 12/10 A2991 RMK AO2 LTG DSNT ALQDS TSE1155B03E37 PRESRR P0012 T01170100
KFAY 071209Z AUTO 35014KT 8SM -TSRA SCT024 BKN032 OVC047 12/11 A2986 RMK AO2 LTG DSNT ALQDS TSE1155B03 P0001 T01220106
KFAY 071155Z AUTO 01016G24KT 7SM VCTS -RA FEW010 BKN027 OVC070 13/11 A2987 RMK AO2 LTG DSNT ALQDS TSE55 P0000 T01280106
KFAY 071153Z AUTO 01015G24KT 7SM -TSRA SCT012 BKN023 OVC065 13/11 A2986 RMK AO2 LTG DSNT ALQDS RAB14 TSB09E38B40 SLP107 P0012 60012 70012 T01280106 10133 20106 53007
KFAY 071135Z AUTO 35009KT 5SM -TSRA BR FEW008 BKN015 OVC026 13/12 A2986 RMK AO2 LTG DSNT ALQDS RAB14 TSB09 P0011 T01330117
KFAY 071127Z AUTO 32014KT 2 1/2SM TSRA BR FEW007 BKN024 OVC049 13/12 A2987 RMK AO2 LTG DSNT ALQDS RAB14 TSB09 P0010 T01330117
KFAY 071109Z AUTO 35006KT 10SM TS FEW007 BKN024 OVC110 13/11 A2986 RMK AO2 LTG DSNT W-N TSB09 PRESRR T01280111
KFAY 071106Z AUTO 01007KT 10SM FEW007 BKN085 OVC110 13/11 A2985 RMK AO2 LTG DSNT W-N T01280111
KFAY 071053Z AUTO 07006KT 10SM OVC100 13/11 A2984 RMK AO2 LTG DSNT W-N SLP099 T01280111
KFAY 070953Z AUTO 10003KT 7SM BKN100 11/11 A2985 RMK AO2 LTG DSNT W SLP101 T01110106